Time;durP1;ratioP1;P1;durP2;ratioP2;P2;SDS_P1;SDS_P2;PMS_P1;PMS_P2;Temp;Humidity;BMP_temperature;BMP_pressure;BME280_temperature;BME280_humidity;BME280_pressure;Samples;Min_cycle;Max_cycle;Signal;HPM_P1;HPM_P2
2022/12/04 00:01:44;;;;;;;;;39.25;30.50;;;;;;;;4987501;28;72500;-83
2022/12/04 00:04:18;;;;;;;;;32.75;28.00;;;;;;;;4994968;28;46105;-84
2022/12/04 00:06:44;;;;;;;;;28.75;26.75;;;;;;;;4992653;28;45520;-82
2022/12/04 00:09:16;;;;;;;;;22.33;20.00;;;;;;;;4980619;28;45555;-81
2022/12/04 00:11:45;;;;;;;;;36.75;28.25;;;;;;;;4994613;28;45775;-81
2022/12/04 00:14:11;;;;;;;;;31.75;26.25;;;;;;;;5007427;28;46173;-81
2022/12/04 00:16:38;;;;;;;;;24.25;15.50;;;;;;;;4970384;28;45659;-82
2022/12/04 00:19:03;;;;;;;;;26.00;22.00;;;;;;;;4998803;28;45587;-82
2022/12/04 00:21:30;;;;;;;;;28.00;20.50;;;;;;;;4998711;28;45467;-82
2022/12/04 00:24:01;;;;;;;;;30.00;28.00;;;;;;;;4969430;28;45769;-82
2022/12/04 00:26:30;;;;;;;;;33.00;24.75;;;;;;;;4984332;28;45912;-83
2022/12/04 00:28:55;;;;;;;;;34.25;23.00;;;;;;;;5003337;28;45456;-81
2022/12/04 00:31:25;;;;;;;;;29.75;25.75;;;;;;;;4982070;28;46691;-82
2022/12/04 00:33:53;;;;;;;;;33.25;26.25;;;;;;;;4987981;28;45475;-82
2022/12/04 00:36:20;;;;;;;;;24.25;20.50;;;;;;;;4988844;28;45512;-83
2022/12/04 00:38:46;;;;;;;;;35.75;25.25;;;;;;;;5006874;28;45433;-81
2022/12/04 00:41:14;;;;;;;;;34.50;26.50;;;;;;;;4985285;28;45834;-82
2022/12/04 00:43:40;;;;;;;;;35.25;32.00;;;;;;;;4980737;28;47007;-83
2022/12/04 00:46:05;;;;;;;;;28.25;24.00;;;;;;;;5002715;28;45838;-83
2022/12/04 00:48:34;;;;;;;;;37.00;26.75;;;;;;;;4989982;28;45533;-82
2022/12/04 00:51:20;;;;;;;;;28.25;22.50;;;;;;;;4997973;28;45512;-82
2022/12/04 00:53:45;;;;;;;;;19.00;17.50;;;;;;;;5019535;28;45787;-82
2022/12/04 00:56:12;;;;;;;;;28.75;24.25;;;;;;;;5000067;28;45356;-80
2022/12/04 00:58:38;;;;;;;;;31.00;25.75;;;;;;;;4998648;28;45544;-80
2022/12/04 01:01:09;;;;;;;;;30.75;27.50;;;;;;;;5015419;28;45427;-83
2022/12/04 01:03:40;;;;;;;;;32.00;27.75;;;;;;;;5015570;28;46216;-82
2022/12/04 01:06:15;;;;;;;;;31.25;26.75;;;;;;;;5012978;28;45540;-82
2022/12/04 01:08:41;;;;;;;;;33.25;25.50;;;;;;;;4996573;28;45566;-83
2022/12/04 01:11:07;;;;;;;;;38.75;31.75;;;;;;;;5015623;28;45970;-82
2022/12/04 01:13:39;;;;;;;;;29.25;20.00;;;;;;;;5012152;28;45935;-83
2022/12/04 01:16:06;;;;;;;;;25.25;19.25;;;;;;;;5014998;28;45644;-81
2022/12/04 01:18:34;;;;;;;;;28.75;20.75;;;;;;;;4999399;28;45654;-82
2022/12/04 01:21:03;;;;;;;;;30.25;28.25;;;;;;;;5021398;28;45579;-82
2022/12/04 01:23:30;;;;;;;;;26.50;23.75;;;;;;;;5018822;28;46063;-80
2022/12/04 01:25:57;;;;;;;;;29.25;25.00;;;;;;;;5024991;28;45439;-82
2022/12/04 01:28:24;;;;;;;;;29.75;24.00;;;;;;;;4997992;28;45528;-81
2022/12/04 01:31:04;;;;;;;;;35.50;30.25;;;;;;;;5014818;28;45799;-82
2022/12/04 01:33:33;;;;;;;;;28.00;26.50;;;;;;;;5011403;28;45651;-81
2022/12/04 01:36:00;;;;;;;;;37.75;26.50;;;;;;;;5015112;28;45521;-82
2022/12/04 01:38:28;;;;;;;;;21.00;17.25;;;;;;;;5014605;28;45467;-81
2022/12/04 01:40:54;;;;;;;;;42.25;28.75;;;;;;;;4995900;28;47334;-81
2022/12/04 01:43:19;;;;;;;;;28.75;24.75;;;;;;;;4995741;28;46765;-80
2022/12/04 01:45:46;;;;;;;;;32.50;27.00;;;;;;;;5000585;28;45949;-81
2022/12/04 01:48:19;;;;;;;;;27.50;23.75;;;;;;;;5014147;28;45541;-83
2022/12/04 01:50:45;;;;;;;;;35.00;28.75;;;;;;;;5012499;28;45466;-81
2022/12/04 01:53:11;;;;;;;;;30.25;24.75;;;;;;;;5005775;28;45609;-81
2022/12/04 01:55:36;;;;;;;;;37.00;34.25;;;;;;;;5018347;28;45992;-81
2022/12/04 01:58:02;;;;;;;;;39.00;30.50;;;;;;;;5013734;28;45509;-83
2022/12/04 02:00:27;;;;;;;;;35.00;28.75;;;;;;;;4995209;28;46602;-82
2022/12/04 02:02:53;;;;;;;;;27.25;23.25;;;;;;;;5013282;28;45539;-82
2022/12/04 02:05:21;;;;;;;;;56.50;41.50;;;;;;;;5013594;28;45599;-82
2022/12/04 02:07:49;;;;;;;;;23.00;16.25;;;;;;;;5013675;28;45877;-82
2022/12/04 02:10:23;;;;;;;;;33.00;23.25;;;;;;;;5012544;28;45557;-82
2022/12/04 02:12:57;;;;;;;;;33.50;27.00;;;;;;;;4996447;28;46582;-82
2022/12/04 02:15:23;;;;;;;;;44.00;28.25;;;;;;;;5006377;28;46082;-83
2022/12/04 02:17:51;;;;;;;;;35.00;27.50;;;;;;;;5013778;28;45362;-82
2022/12/04 02:20:42;;;;;;;;;38.25;27.00;;;;;;;;5013974;28;45475;-82
2022/12/04 02:23:12;;;;;;;;;28.50;22.25;;;;;;;;5012762;28;47325;-80
2022/12/04 02:25:59;;;;;;;;;35.00;28.50;;;;;;;;4997782;28;45493;-81
2022/12/04 02:28:28;;;;;;;;;34.00;28.00;;;;;;;;4995292;28;45465;-80
2022/12/04 02:31:04;;;;;;;;;28.00;27.25;;;;;;;;5000895;28;46065;-80
2022/12/04 02:33:46;;;;;;;;;32.25;24.00;;;;;;;;5009840;28;45463;-81
2022/12/04 02:36:19;;;;;;;;;42.50;30.50;;;;;;;;5011977;28;45558;-81
2022/12/04 02:38:54;;;;;;;;;36.75;28.75;;;;;;;;5006559;28;45732;-81
2022/12/04 02:41:24;;;;;;;;;39.75;32.50;;;;;;;;5013623;28;45591;-81
2022/12/04 02:43:55;;;;;;;;;36.50;27.75;;;;;;;;5016473;28;45772;-79
2022/12/04 02:46:38;;;;;;;;;25.25;20.00;;;;;;;;5021283;28;45641;-80
2022/12/04 02:49:11;;;;;;;;;46.00;29.50;;;;;;;;5008683;28;45487;-81
2022/12/04 02:51:58;;;;;;;;;;;;;;;;;;;;;
2022/12/04 02:54:30;;;;;;;;;37.75;30.25;;;;;;;;5032702;28;75854;-80
2022/12/04 02:56:59;;;;;;;;;40.50;28.75;;;;;;;;5025515;28;45362;-80
2022/12/04 02:59:36;;;;;;;;;34.75;21.50;;;;;;;;5009794;28;45418;-81
2022/12/04 03:02:07;;;;;;;;;35.25;29.75;;;;;;;;5002640;28;45367;-81
2022/12/04 03:04:49;;;;;;;;;23.00;19.50;;;;;;;;5016781;28;46246;-82
2022/12/04 03:07:49;;;;;;;;;39.00;34.75;;;;;;;;4994493;28;45738;-81
2022/12/04 03:10:21;;;;;;;;;39.00;30.25;;;;;;;;5014340;28;45397;-81
2022/12/04 03:13:06;;;;;;;;;35.75;27.75;;;;;;;;5014627;28;45836;-82
2022/12/04 03:15:36;;;;;;;;;34.25;29.25;;;;;;;;5005556;28;45527;-81
2022/12/04 03:18:11;;;;;;;;;31.25;26.00;;;;;;;;5009175;28;45455;-82
2022/12/04 03:20:53;;;;;;;;;33.25;26.00;;;;;;;;5013635;28;45465;-82
2022/12/04 03:23:39;;;;;;;;;37.75;30.75;;;;;;;;5021960;28;46474;-80
2022/12/04 03:26:27;;;;;;;;;34.00;29.25;;;;;;;;4969664;28;47594;-83
2022/12/04 03:29:01;;;;;;;;;37.00;30.25;;;;;;;;5008602;28;45791;-83
2022/12/04 03:31:37;;;;;;;;;31.00;26.00;;;;;;;;5010588;28;45396;-81
2022/12/04 03:34:08;;;;;;;;;31.50;25.00;;;;;;;;5014579;28;45240;-81
2022/12/04 03:36:41;;;;;;;;;42.00;25.50;;;;;;;;5016062;28;45894;-81
2022/12/04 03:39:42;;;;;;;;;34.00;27.50;;;;;;;;5015987;28;45764;-80
2022/12/04 03:42:11;;;;;;;;;36.50;30.25;;;;;;;;4974648;28;45457;-80
2022/12/04 03:44:42;;;;;;;;;33.00;31.50;;;;;;;;5007247;28;45498;-80
2022/12/04 03:47:13;;;;;;;;;32.25;27.50;;;;;;;;5006341;28;47032;-79
2022/12/04 03:49:44;;;;;;;;;34.50;27.50;;;;;;;;5017766;28;45789;-80
2022/12/04 03:52:18;;;;;;;;;31.00;26.50;;;;;;;;5015183;28;45648;-80
2022/12/04 03:54:49;;;;;;;;;32.00;24.75;;;;;;;;5018472;28;45987;-80
2022/12/04 03:57:21;;;;;;;;;46.50;32.00;;;;;;;;5023868;28;46338;-81
2022/12/04 04:00:01;;;;;;;;;36.50;32.50;;;;;;;;5023574;28;45376;-79
2022/12/04 04:02:34;;;;;;;;;41.50;33.75;;;;;;;;4999877;28;45428;-81
2022/12/04 04:05:20;;;;;;;;;40.25;34.00;;;;;;;;5018352;28;45480;-81
2022/12/04 04:08:24;;;;;;;;;40.25;34.00;;;;;;;;5018191;28;46174;-80
2022/12/04 04:10:48;;;;;;;;;43.25;34.25;;;;;;;;5021367;28;45603;-82
2022/12/04 04:24:36;;;;;;;;;34.25;29.00;;;;;;;;5020278;28;45678;-84
2022/12/04 04:27:05;;;;;;;;;33.75;31.25;;;;;;;;5020956;28;45561;-83
2022/12/04 04:29:34;;;;;;;;;43.00;29.50;;;;;;;;5026368;28;47052;-84
2022/12/04 04:32:17;;;;;;;;;40.25;34.00;;;;;;;;5010953;28;44723;-82
2022/12/04 04:34:46;;;;;;;;;39.25;32.50;;;;;;;;5032411;28;45395;-80
2022/12/04 04:37:34;;;;;;;;;37.50;32.50;;;;;;;;5028038;28;45722;-80
2022/12/04 04:40:11;;;;;;;;;36.50;32.00;;;;;;;;5029437;28;45683;-80
2022/12/04 04:43:23;;;;;;;;;39.50;31.25;;;;;;;;5037350;28;45414;-80
2022/12/04 04:45:52;;;;;;;;;43.25;32.25;;;;;;;;4937213;28;45493;-82
2022/12/04 04:48:26;;;;;;;;;37.75;32.75;;;;;;;;4956453;28;45584;-83
2022/12/04 04:50:52;;;;;;;;;43.00;28.50;;;;;;;;4964069;28;46879;-79
2022/12/04 04:53:22;;;;;;;;;38.25;31.25;;;;;;;;5008855;28;45310;-82
2022/12/04 04:56:03;;;;;;;;;;;;;;;;;;;;;
2022/12/04 04:58:34;;;;;;;;;38.50;31.75;;;;;;;;5009374;28;73635;-80
2022/12/04 05:01:02;;;;;;;;;38.00;31.25;;;;;;;;4996734;28;45768;-82
2022/12/04 05:03:28;;;;;;;;;44.50;35.00;;;;;;;;5008745;28;45412;-81
2022/12/04 05:06:08;;;;;;;;;33.50;27.25;;;;;;;;4989184;28;45278;-82
2022/12/04 05:08:38;;;;;;;;;39.00;30.00;;;;;;;;4988065;28;44946;-85
2022/12/04 05:11:05;;;;;;;;;40.50;35.00;;;;;;;;5022128;28;45772;-83
2022/12/04 05:13:33;;;;;;;;;40.25;28.50;;;;;;;;5041130;28;45051;-86
2022/12/04 05:16:03;;;;;;;;;31.25;28.50;;;;;;;;4998798;28;44730;-84
2022/12/04 05:18:29;;;;;;;;;36.00;32.25;;;;;;;;4990667;28;45778;-82
2022/12/04 05:20:55;;;;;;;;;34.75;28.50;;;;;;;;4986051;28;45789;-81
2022/12/04 05:23:20;;;;;;;;;42.50;32.75;;;;;;;;4997189;28;45899;-81
2022/12/04 05:25:46;;;;;;;;;40.00;34.50;;;;;;;;4993863;28;45463;-81
2022/12/04 05:28:12;;;;;;;;;44.50;29.50;;;;;;;;4996613;28;45673;-81
2022/12/04 05:30:38;;;;;;;;;35.75;29.25;;;;;;;;4969815;28;46035;-81
2022/12/04 05:33:03;;;;;;;;;38.50;32.50;;;;;;;;4978913;28;45808;-80
2022/12/04 05:35:28;;;;;;;;;35.50;27.25;;;;;;;;4990672;28;45381;-79
2022/12/04 05:37:56;;;;;;;;;39.25;29.75;;;;;;;;4992708;28;46666;-87
2022/12/04 05:40:25;;;;;;;;;37.75;32.50;;;;;;;;5003959;28;46995;-86
2022/12/04 05:42:50;;;;;;;;;37.75;31.75;;;;;;;;4999095;28;44902;-87
2022/12/04 05:45:16;;;;;;;;;38.75;33.75;;;;;;;;4983175;28;45341;-78
2022/12/04 05:47:42;;;;;;;;;38.50;27.75;;;;;;;;4975293;28;45746;-78
2022/12/04 05:50:08;;;;;;;;;39.25;29.75;;;;;;;;4988097;28;47471;-80
2022/12/04 05:52:34;;;;;;;;;30.00;23.50;;;;;;;;5014358;28;45512;-79
2022/12/04 05:54:59;;;;;;;;;31.75;28.50;;;;;;;;5012885;28;45678;-81
2022/12/04 05:57:24;;;;;;;;;37.75;34.00;;;;;;;;4981054;28;46671;-79
2022/12/04 05:59:49;;;;;;;;;33.50;30.75;;;;;;;;5005449;28;46301;-76
2022/12/04 06:02:15;;;;;;;;;40.00;32.00;;;;;;;;5011943;28;46092;-77
2022/12/04 06:04:40;;;;;;;;;32.00;29.25;;;;;;;;5010788;28;46639;-78
2022/12/04 06:07:12;;;;;;;;;41.25;34.00;;;;;;;;4984331;28;45621;-77
2022/12/04 06:09:38;;;;;;;;;38.50;32.00;;;;;;;;5020302;28;45173;-78
2022/12/04 06:12:03;;;;;;;;;34.50;31.00;;;;;;;;5017877;28;45992;-81
2022/12/04 06:14:29;;;;;;;;;27.75;21.50;;;;;;;;5013737;28;45479;-80
2022/12/04 06:16:54;;;;;;;;;34.75;27.75;;;;;;;;5011816;28;45785;-77
2022/12/04 06:19:21;;;;;;;;;44.00;30.50;;;;;;;;5010545;28;48604;-77
2022/12/04 06:21:47;;;;;;;;;49.00;34.50;;;;;;;;5012219;28;45558;-75
2022/12/04 06:24:14;;;;;;;;;33.50;28.00;;;;;;;;5010157;28;45509;-77
2022/12/04 06:26:39;;;;;;;;;45.75;35.50;;;;;;;;5011412;28;47277;-79
2022/12/04 06:29:05;;;;;;;;;42.75;35.25;;;;;;;;5011507;28;45597;-79
2022/12/04 06:31:32;;;;;;;;;46.50;38.50;;;;;;;;5009584;28;45862;-78
2022/12/04 06:33:57;;;;;;;;;33.75;30.00;;;;;;;;5000700;28;45488;-79
2022/12/04 06:36:23;;;;;;;;;40.50;34.25;;;;;;;;5009368;28;45478;-78
2022/12/04 06:38:49;;;;;;;;;49.50;38.75;;;;;;;;4995007;28;47473;-78
2022/12/04 06:41:16;;;;;;;;;44.25;36.00;;;;;;;;5011051;28;45747;-80
2022/12/04 06:43:41;;;;;;;;;34.00;27.75;;;;;;;;4998721;28;45558;-85
2022/12/04 06:46:14;;;;;;;;;43.75;35.50;;;;;;;;4991633;28;46037;-80
2022/12/04 06:48:40;;;;;;;;;36.25;35.00;;;;;;;;5013181;28;46187;-80
2022/12/04 06:51:07;;;;;;;;;42.25;32.00;;;;;;;;5003878;28;45511;-80
2022/12/04 06:53:33;;;;;;;;;36.25;32.50;;;;;;;;5013579;28;45483;-81
2022/12/04 06:55:59;;;;;;;;;32.25;28.50;;;;;;;;5014063;28;45493;-80
2022/12/04 06:58:25;;;;;;;;;48.75;33.00;;;;;;;;4991300;28;46887;-80
2022/12/04 07:00:50;;;;;;;;;41.75;33.75;;;;;;;;4998531;28;45333;-82
2022/12/04 07:03:18;;;;;;;;;29.75;27.00;;;;;;;;5004296;28;45764;-79
2022/12/04 07:05:46;;;;;;;;;27.00;27.00;;;;;;;;5029735;28;44801;-82
2022/12/04 07:08:11;;;;;;;;;40.00;31.00;;;;;;;;5022965;28;46817;-80
2022/12/04 07:10:46;;;;;;;;;49.50;38.75;;;;;;;;5033979;28;45791;-80
2022/12/04 07:13:12;;;;;;;;;49.00;37.75;;;;;;;;5014266;28;45204;-82
2022/12/04 07:15:38;;;;;;;;;42.00;35.25;;;;;;;;5010051;28;45501;-81
2022/12/04 07:18:06;;;;;;;;;32.75;27.50;;;;;;;;5034095;28;45241;-81
2022/12/04 07:20:32;;;;;;;;;48.50;36.75;;;;;;;;5012600;28;44865;-81
2022/12/04 07:22:57;;;;;;;;;36.25;32.00;;;;;;;;5015017;28;44706;-80
2022/12/04 07:25:22;;;;;;;;;41.25;31.50;;;;;;;;5034698;28;45616;-80
2022/12/04 07:27:48;;;;;;;;;43.00;33.50;;;;;;;;5031307;28;45274;-82
2022/12/04 07:30:13;;;;;;;;;47.25;33.50;;;;;;;;5036464;28;45475;-81
2022/12/04 07:32:39;;;;;;;;;48.25;38.25;;;;;;;;5013027;28;44788;-81
2022/12/04 07:35:04;;;;;;;;;41.50;35.75;;;;;;;;5042043;28;45447;-81
2022/12/04 07:37:36;;;;;;;;;42.50;33.25;;;;;;;;5040233;28;45517;-80
2022/12/04 07:40:03;;;;;;;;;38.50;32.75;;;;;;;;5047087;28;45451;-81
2022/12/04 07:42:30;;;;;;;;;41.50;34.50;;;;;;;;5024862;28;44715;-82
2022/12/04 07:44:59;;;;;;;;;45.00;37.75;;;;;;;;5058137;28;44836;-82
2022/12/04 07:47:25;;;;;;;;;35.50;31.00;;;;;;;;5016205;28;46539;-82
2022/12/04 07:49:50;;;;;;;;;41.00;32.75;;;;;;;;5011698;28;45020;-82
2022/12/04 07:52:16;;;;;;;;;39.25;30.00;;;;;;;;5000807;28;45429;-81
2022/12/04 07:54:41;;;;;;;;;37.75;34.50;;;;;;;;5021088;28;44817;-82
2022/12/04 07:57:07;;;;;;;;;46.50;35.25;;;;;;;;5010268;28;45284;-82
2022/12/04 07:59:32;;;;;;;;;43.25;31.00;;;;;;;;4998815;28;45244;-81
2022/12/04 08:01:58;;;;;;;;;53.75;41.25;;;;;;;;5003689;28;45192;-84
2022/12/04 08:04:23;;;;;;;;;29.00;26.25;;;;;;;;4995964;28;45505;-81
2022/12/04 08:06:49;;;;;;;;;46.00;35.50;;;;;;;;5016170;28;45190;-83
2022/12/04 08:09:14;;;;;;;;;38.00;33.50;;;;;;;;4999416;28;45456;-81
2022/12/04 08:11:40;;;;;;;;;24.25;19.00;;;;;;;;4997601;28;44732;-81
2022/12/04 08:14:07;;;;;;;;;29.50;22.75;;;;;;;;5001672;28;44784;-82
2022/12/04 08:16:35;;;;;;;;;48.75;40.00;;;;;;;;5013281;28;46108;-81
2022/12/04 08:19:02;;;;;;;;;44.75;34.50;;;;;;;;4995491;28;45585;-82
2022/12/04 08:21:31;;;;;;;;;35.25;31.75;;;;;;;;4992072;28;45027;-82
2022/12/04 08:23:57;;;;;;;;;45.25;36.75;;;;;;;;5016862;28;45760;-82
2022/12/04 08:26:23;;;;;;;;;41.50;34.00;;;;;;;;4995855;28;46390;-82
2022/12/04 08:28:51;;;;;;;;;45.25;36.25;;;;;;;;4988786;28;44813;-82
2022/12/04 08:31:19;;;;;;;;;42.00;33.25;;;;;;;;5017579;28;44754;-81
2022/12/04 08:33:45;;;;;;;;;41.00;33.75;;;;;;;;5005450;28;45428;-81
2022/12/04 08:36:12;;;;;;;;;33.50;29.50;;;;;;;;5022979;28;45461;-81
2022/12/04 08:38:38;;;;;;;;;47.25;35.50;;;;;;;;5005794;28;45538;-81
2022/12/04 08:41:05;;;;;;;;;40.50;25.75;;;;;;;;5010219;28;44730;-82
2022/12/04 08:43:31;;;;;;;;;41.25;29.25;;;;;;;;5010803;28;45273;-82
2022/12/04 08:46:03;;;;;;;;;44.75;34.50;;;;;;;;5007154;28;45445;-81
2022/12/04 08:48:29;;;;;;;;;45.25;34.50;;;;;;;;5036292;28;44857;-81
2022/12/04 08:50:55;;;;;;;;;45.25;34.75;;;;;;;;5027575;28;45465;-82
2022/12/04 08:53:21;;;;;;;;;40.25;31.25;;;;;;;;5023469;28;45852;-82
2022/12/04 08:55:46;;;;;;;;;33.75;29.75;;;;;;;;5022011;28;46360;-83
2022/12/04 08:58:12;;;;;;;;;46.25;34.50;;;;;;;;5004635;28;45440;-82
2022/12/04 09:00:37;;;;;;;;;49.00;35.50;;;;;;;;5016155;28;45505;-83
2022/12/04 09:03:03;;;;;;;;;37.25;25.25;;;;;;;;5032316;28;45452;-83
2022/12/04 09:05:28;;;;;;;;;40.50;32.50;;;;;;;;5033758;28;46017;-82
2022/12/04 09:07:57;;;;;;;;;45.50;37.75;;;;;;;;5034097;28;44793;-82
2022/12/04 09:10:29;;;;;;;;;39.00;34.25;;;;;;;;5024943;28;45408;-84
2022/12/04 09:13:00;;;;;;;;;37.75;29.25;;;;;;;;5008839;28;45531;-83
2022/12/04 09:15:26;;;;;;;;;42.25;37.00;;;;;;;;5021931;28;45454;-84
2022/12/04 09:17:51;;;;;;;;;37.25;30.50;;;;;;;;5011563;28;45949;-82
2022/12/04 09:20:22;;;;;;;;;37.00;34.50;;;;;;;;5033806;28;45441;-83
2022/12/04 09:22:47;;;;;;;;;49.50;35.25;;;;;;;;5013190;28;44861;-83
2022/12/04 09:25:13;;;;;;;;;51.25;38.00;;;;;;;;5028778;28;46744;-83
2022/12/04 09:27:40;;;;;;;;;45.25;32.00;;;;;;;;4994873;28;45504;-82
2022/12/04 09:30:06;;;;;;;;;46.25;34.00;;;;;;;;4997363;28;45457;-82
2022/12/04 09:32:32;;;;;;;;;44.25;35.75;;;;;;;;5018542;28;45388;-83
2022/12/04 09:34:57;;;;;;;;;32.75;28.25;;;;;;;;4999846;28;46495;-82
2022/12/04 09:37:22;;;;;;;;;42.00;35.00;;;;;;;;5016137;28;45446;-82
2022/12/04 09:39:47;;;;;;;;;47.25;32.75;;;;;;;;5021275;28;45758;-82
2022/12/04 09:42:16;;;;;;;;;57.75;43.75;;;;;;;;4999924;28;45607;-84
2022/12/04 09:44:50;;;;;;;;;45.25;35.50;;;;;;;;5004060;28;46797;-83
2022/12/04 09:47:27;;;;;;;;;40.50;36.25;;;;;;;;5021813;28;45411;-82
2022/12/04 09:49:59;;;;;;;;;42.50;35.50;;;;;;;;5001318;28;44790;-83
2022/12/04 09:52:38;;;;;;;;;31.00;31.00;;;;;;;;5004900;28;45440;-84
2022/12/04 09:55:11;;;;;;;;;51.25;38.25;;;;;;;;4995991;28;45688;-83
2022/12/04 09:57:43;;;;;;;;;43.00;33.75;;;;;;;;5009266;28;45472;-82
2022/12/04 10:00:14;;;;;;;;;35.00;27.25;;;;;;;;4999716;28;44667;-82
2022/12/04 10:02:46;;;;;;;;;46.75;37.00;;;;;;;;4984104;28;46247;-83
2022/12/04 10:05:31;;;;;;;;;47.75;36.00;;;;;;;;5006518;28;45732;-82
2022/12/04 10:08:33;;;;;;;;;;;;;;;;;;;;;
2022/12/04 10:11:01;;;;;;;;;36.75;28.75;;;;;;;;5003008;28;69516;-83
2022/12/04 10:13:37;;;;;;;;;49.75;35.25;;;;;;;;4984818;28;45921;-83
2022/12/04 10:16:07;;;;;;;;;43.25;34.00;;;;;;;;4998001;28;46570;-81
2022/12/04 10:18:48;;;;;;;;;53.75;39.75;;;;;;;;4973781;28;45676;-83
2022/12/04 10:21:26;;;;;;;;;45.50;37.00;;;;;;;;4984530;28;45529;-83
2022/12/04 10:23:59;;;;;;;;;50.00;36.50;;;;;;;;4994823;28;45290;-81
2022/12/04 10:26:27;;;;;;;;;36.00;25.75;;;;;;;;4994487;28;47806;-83
2022/12/04 10:28:56;;;;;;;;;40.25;34.00;;;;;;;;4980339;28;45764;-84
2022/12/04 10:31:57;;;;;;;;;36.50;27.25;;;;;;;;5003969;28;45780;-83
2022/12/04 10:37:51;;;;;;;;;;;;;;;;;;;;;
2022/12/04 10:40:21;;;;;;;;;49.25;35.00;;;;;;;;5003496;28;73486;-83
2022/12/04 10:43:08;;;;;;;;;44.75;33.50;;;;;;;;4991665;28;45540;-84
2022/12/04 10:45:35;;;;;;;;;43.25;32.75;;;;;;;;5006686;28;45476;-85
2022/12/04 10:48:06;;;;;;;;;45.25;35.50;;;;;;;;4992484;28;46392;-83
2022/12/04 10:50:32;;;;;;;;;40.50;32.75;;;;;;;;5006595;28;45572;-83
2022/12/04 10:53:10;;;;;;;;;34.75;27.00;;;;;;;;5006047;28;45369;-83
2022/12/04 10:55:44;;;;;;;;;43.50;34.25;;;;;;;;5022329;28;45436;-82
2022/12/04 10:58:17;;;;;;;;;42.25;34.75;;;;;;;;5010489;28;46917;-83
2022/12/04 11:00:58;;;;;;;;;34.00;28.50;;;;;;;;5006311;28;45725;-83
2022/12/04 11:03:27;;;;;;;;;53.25;37.50;;;;;;;;5021254;28;45610;-84
2022/12/04 11:06:27;;;;;;;;;43.00;34.50;;;;;;;;5000917;28;45434;-85
2022/12/04 11:09:02;;;;;;;;;52.00;34.50;;;;;;;;4961231;28;46942;-83
2022/12/04 11:11:29;;;;;;;;;42.75;36.50;;;;;;;;5001255;28;45467;-83
2022/12/04 11:14:04;;;;;;;;;50.25;38.00;;;;;;;;5007305;28;45516;-82
2022/12/04 11:17:03;;;;;;;;;45.00;37.00;;;;;;;;5020618;28;45439;-82
2022/12/04 11:19:35;;;;;;;;;44.50;34.50;;;;;;;;5014775;28;45407;-83
2022/12/04 11:22:24;;;;;;;;;36.25;31.25;;;;;;;;5006400;28;45734;-82
2022/12/04 11:24:58;;;;;;;;;31.00;23.75;;;;;;;;4981327;28;47111;-82
2022/12/04 11:27:36;;;;;;;;;51.75;40.25;;;;;;;;4992541;28;45974;-81
2022/12/04 11:30:20;;;;;;;;;50.25;38.25;;;;;;;;5000102;28;47360;-82
2022/12/04 11:32:46;;;;;;;;;53.50;41.50;;;;;;;;5015395;28;45628;-82
2022/12/04 11:35:26;;;;;;;;;49.00;38.00;;;;;;;;5015015;28;45593;-81
2022/12/04 11:37:59;;;;;;;;;44.50;38.00;;;;;;;;5015973;28;45364;-81
2022/12/04 11:40:26;;;;;;;;;43.75;36.50;;;;;;;;5007567;28;46029;-83
2022/12/04 11:43:20;;;;;;;;;56.75;39.00;;;;;;;;5016854;28;44828;-81
2022/12/04 11:46:02;;;;;;;;;43.00;34.75;;;;;;;;4995054;28;45747;-86
2022/12/04 11:48:44;;;;;;;;;55.50;41.50;;;;;;;;4998170;28;45608;-81
2022/12/04 11:51:26;;;;;;;;;44.75;37.25;;;;;;;;5008796;28;45464;-81
2022/12/04 11:53:59;;;;;;;;;40.75;37.25;;;;;;;;5008944;28;45952;-81
2022/12/04 11:56:37;;;;;;;;;54.00;36.75;;;;;;;;5011156;28;45621;-81
2022/12/04 11:59:37;;;;;;;;;;;;;;;;;;;;;
2022/12/04 12:02:22;;;;;;;;;48.75;36.75;;;;;;;;5009170;28;75100;-81
2022/12/04 12:05:02;;;;;;;;;55.00;39.75;;;;;;;;5012931;28;45824;-81
2022/12/04 12:07:42;;;;;;;;;46.25;33.75;;;;;;;;4989501;28;45471;-83
2022/12/04 12:10:07;;;;;;;;;49.25;38.25;;;;;;;;4992541;28;45881;-81
2022/12/04 12:12:51;;;;;;;;;54.00;40.00;;;;;;;;5015549;28;46383;-82
2022/12/04 12:15:32;;;;;;;;;48.50;37.25;;;;;;;;5007282;28;45787;-83
2022/12/04 12:18:13;;;;;;;;;47.75;35.25;;;;;;;;4998395;28;45734;-81
2022/12/04 12:20:38;;;;;;;;;46.25;37.75;;;;;;;;5008744;28;45649;-82
2022/12/04 12:23:23;;;;;;;;;57.25;41.25;;;;;;;;5011034;28;46459;-83
2022/12/04 12:26:02;;;;;;;;;47.25;37.75;;;;;;;;5011686;28;45499;-81
2022/12/04 12:28:33;;;;;;;;;53.50;39.75;;;;;;;;5018716;28;45701;-81
2022/12/04 12:31:12;;;;;;;;;55.25;40.75;;;;;;;;5013416;28;45989;-81
2022/12/04 12:33:56;;;;;;;;;49.50;37.25;;;;;;;;4998560;28;48039;-81
2022/12/04 12:36:23;;;;;;;;;48.00;33.25;;;;;;;;5023853;28;45755;-83
2022/12/04 12:38:51;;;;;;;;;51.75;37.00;;;;;;;;5003689;28;45357;-82
2022/12/04 12:41:26;;;;;;;;;16.00;7.00;;;;;;;;5017819;28;45851;-80
2022/12/04 12:44:18;;;;;;;;;48.75;35.00;;;;;;;;5000493;28;46836;-82
2022/12/04 12:46:50;;;;;;;;;51.75;37.75;;;;;;;;4996469;28;45878;-81
2022/12/04 12:49:28;;;;;;;;;51.25;36.00;;;;;;;;4985490;28;45620;-79
2022/12/04 12:51:59;;;;;;;;;54.75;42.00;;;;;;;;4996998;28;47708;-83
2022/12/04 12:54:43;;;;;;;;;52.00;36.50;;;;;;;;5011871;28;45554;-83
2022/12/04 12:57:20;;;;;;;;;57.25;39.50;;;;;;;;4989798;28;45700;-81
2022/12/04 12:59:54;;;;;;;;;41.25;35.50;;;;;;;;5012761;28;44872;-84
2022/12/04 13:02:50;;;;;;;;;52.50;39.75;;;;;;;;4998471;28;45954;-83
2022/12/04 13:05:27;;;;;;;;;52.50;39.75;;;;;;;;4972259;28;46086;-83
2022/12/04 13:07:58;;;;;;;;;51.75;38.50;;;;;;;;5009923;28;45440;-82
2022/12/04 13:10:46;;;;;;;;;54.25;39.50;;;;;;;;5022089;28;45529;-83
2022/12/04 13:13:22;;;;;;;;;38.50;33.25;;;;;;;;5015834;28;45856;-84
2022/12/04 13:15:51;;;;;;;;;44.00;30.75;;;;;;;;5005946;28;46053;-83
2022/12/04 13:18:26;;;;;;;;;50.50;36.50;;;;;;;;5016228;28;45498;-83
2022/12/04 13:20:55;;;;;;;;;44.25;37.00;;;;;;;;5015512;28;45679;-83
2022/12/04 13:23:22;;;;;;;;;53.25;40.25;;;;;;;;5013163;28;45749;-83
2022/12/04 15:02:10;;;;;;;;;49.25;39.50;;;;;;;;4872239;29;45892;-84
2022/12/04 15:04:45;;;;;;;;;59.50;41.50;;;;;;;;4873989;29;45279;-84
2022/12/04 15:07:16;;;;;;;;;45.00;31.25;;;;;;;;4967823;28;45571;-83
2022/12/04 15:13:21;;;;;;;;;;;;;;;;;;;;;
2022/12/04 15:18:45;;;;;;;;;52.25;39.50;;;;;;;;5021531;28;44943;-85
2022/12/04 15:21:24;;;;;;;;;57.00;36.50;;;;;;;;5023954;28;45438;-85
2022/12/04 15:24:05;;;;;;;;;53.50;36.00;;;;;;;;5034125;28;45308;-84
2022/12/04 15:26:42;;;;;;;;;54.50;38.00;;;;;;;;5014294;28;45465;-85
2022/12/04 15:29:46;;;;;;;;;;;;;;;;;;;;;
2022/12/04 15:32:46;;;;;;;;;58.00;43.00;;;;;;;;5031340;28;71967;-85
2022/12/04 15:35:45;;;;;;;;;;;;;;;;;;;;;
2022/12/04 15:42:14;;;;;;;;;;;;;;;;;;;;;
2022/12/04 15:45:05;;;;;;;;;52.00;40.50;;;;;;;;4949904;28;72841;-86
2022/12/04 15:48:22;;;;;;;;;;;;;;;;;;;;;
2022/12/04 15:51:17;;;;;;;;;53.00;37.75;;;;;;;;4901913;28;74324;-84
2022/12/04 15:53:46;;;;;;;;;48.75;37.25;;;;;;;;4897628;28;47561;-85
2022/12/04 15:56:24;;;;;;;;;56.00;38.25;;;;;;;;4957749;28;45621;-84
2022/12/04 15:59:28;;;;;;;;;54.25;38.00;;;;;;;;5021909;28;45587;-87
2022/12/04 16:02:13;;;;;;;;;50.75;39.25;;;;;;;;4982413;28;45620;-85
2022/12/04 16:05:15;;;;;;;;;50.50;40.25;;;;;;;;5016813;28;46196;-86
2022/12/04 16:08:07;;;;;;;;;52.75;38.00;;;;;;;;5012039;28;45589;-86
2022/12/04 16:13:45;;;;;;;;;39.25;29.00;;;;;;;;5014335;28;45859;-83
2022/12/04 16:16:30;;;;;;;;;56.00;39.25;;;;;;;;5002670;28;47663;-86
2022/12/04 16:19:14;;;;;;;;;;;;;;;;;;;;;
2022/12/04 16:22:14;;;;;;;;;51.50;41.25;;;;;;;;5022238;28;68113;-86
2022/12/04 16:24:57;;;;;;;;;54.25;38.25;;;;;;;;4991889;28;46837;-83
2022/12/04 16:30:37;;;;;;;;;54.25;41.25;;;;;;;;5022427;28;44875;-85
2022/12/04 16:39:45;;;;;;;;;52.25;38.75;;;;;;;;4864841;29;47045;-84
2022/12/04 16:42:18;;;;;;;;;50.50;37.25;;;;;;;;4867943;29;45310;-83
2022/12/04 16:44:55;;;;;;;;;55.75;39.25;;;;;;;;4901820;28;45623;-81
2022/12/04 16:47:33;;;;;;;;;52.75;36.00;;;;;;;;4951425;28;46242;-82
2022/12/04 16:50:11;;;;;;;;;50.00;40.00;;;;;;;;4994859;28;48035;-81
2022/12/04 16:53:06;;;;;;;;;50.50;36.75;;;;;;;;4995636;28;45573;-84
2022/12/04 16:55:42;;;;;;;;;40.75;35.00;;;;;;;;4998405;28;45504;-87
2022/12/04 16:58:11;;;;;;;;;51.00;36.75;;;;;;;;5011674;28;46353;-85
2022/12/04 17:00:38;;;;;;;;;52.25;37.25;;;;;;;;5005958;28;47420;-84
2022/12/04 17:03:16;;;;;;;;;53.00;38.50;;;;;;;;5022823;28;44780;-84
2022/12/04 17:05:54;;;;;;;;;53.75;38.75;;;;;;;;5022377;28;46489;-84
2022/12/04 17:08:20;;;;;;;;;51.75;38.25;;;;;;;;5021600;28;45521;-83
2022/12/04 17:10:50;;;;;;;;;55.25;40.00;;;;;;;;5004338;28;46828;-84
2022/12/04 17:13:16;;;;;;;;;53.75;40.25;;;;;;;;5002068;28;45349;-83
2022/12/04 17:15:58;;;;;;;;;52.00;35.00;;;;;;;;4992161;28;45503;-83